createdAt,value
2018-12-29T00:01:00.598Z,-2.40
2018-12-29T00:03:30.370Z,-2.50
2018-12-29T00:06:00.109Z,-2.50
2018-12-29T00:08:29.957Z,-2.60
2018-12-29T00:10:59.724Z,-2.50
2018-12-29T00:13:29.582Z,-2.50
2018-12-29T00:15:59.366Z,-2.60
2018-12-29T00:18:29.197Z,-2.70
2018-12-29T00:20:59.059Z,-2.80
2018-12-29T00:23:28.828Z,-2.90
2018-12-29T00:25:58.602Z,-2.80
2018-12-29T00:28:28.381Z,-2.90
2018-12-29T00:30:58.148Z,-3.00
2018-12-29T00:33:27.930Z,-2.90
2018-12-29T00:35:58.060Z,-2.80
2018-12-29T00:38:27.822Z,-2.90
2018-12-29T00:40:57.598Z,-2.90
2018-12-29T00:43:27.403Z,-2.90
2018-12-29T00:45:57.163Z,-2.80
2018-12-29T00:48:26.917Z,-2.70
2018-12-29T00:50:56.794Z,-2.80
2018-12-29T00:53:26.584Z,-2.90
2018-12-29T00:55:56.661Z,-3.00
2018-12-29T00:58:26.422Z,-3.10
2018-12-29T01:00:56.194Z,-3.10
2018-12-29T01:03:26.405Z,-3.10
2018-12-29T01:05:56.238Z,-3.20
2018-12-29T01:08:26.158Z,-3.00
2018-12-29T01:10:55.916Z,-3.10
2018-12-29T01:13:25.676Z,-3.20
2018-12-29T01:15:55.509Z,-3.30
2018-12-29T01:18:25.370Z,-3.20
2018-12-29T01:20:55.477Z,-3.00
2018-12-29T01:23:25.508Z,-2.90
2018-12-29T01:25:55.349Z,-2.90
2018-12-29T01:28:25.263Z,-2.80
2018-12-29T01:30:55.351Z,-2.70
2018-12-29T01:33:25.191Z,-2.60
2018-12-29T01:35:55.294Z,-2.40
2018-12-29T01:38:25.183Z,-2.40
2018-12-29T01:40:54.975Z,-2.30
2018-12-29T01:43:24.723Z,-2.10
2018-12-29T01:45:54.570Z,-2.00
2018-12-29T01:48:24.538Z,-2.00
2018-12-29T01:50:54.814Z,-1.90
2018-12-29T01:53:24.593Z,-1.80
2018-12-29T01:55:54.872Z,-1.70
2018-12-29T01:58:24.637Z,-1.50
2018-12-29T02:00:54.481Z,-1.50
2018-12-29T02:03:25.958Z,-1.50
2018-12-29T02:05:55.746Z,-1.50
2018-12-29T02:08:25.516Z,-1.50
2018-12-29T02:10:55.358Z,-1.50
2018-12-29T02:13:25.141Z,-1.40
2018-12-29T02:15:54.908Z,-1.30
2018-12-29T02:18:24.653Z,-1.30
2018-12-29T02:20:54.605Z,-1.10
2018-12-29T02:23:24.463Z,-1.20
2018-12-29T02:25:54.320Z,-1.10
2018-12-29T02:28:24.410Z,-1.10
2018-12-29T02:30:54.260Z,-1.00
2018-12-29T02:33:24.440Z,-1.00
2018-12-29T02:35:54.218Z,-1.00
2018-12-29T02:38:23.999Z,-1.00
2018-12-29T02:40:53.843Z,-1.00
2018-12-29T02:43:23.668Z,-1.10
2018-12-29T02:45:53.494Z,-1.20
2018-12-29T02:48:23.618Z,-1.30
2018-12-29T02:50:53.454Z,-1.30
2018-12-29T02:53:23.577Z,-1.40
2018-12-29T02:55:53.332Z,-1.40
2018-12-29T02:58:23.122Z,-1.40
2018-12-29T03:00:53.017Z,-1.40
2018-12-29T03:03:22.809Z,-1.40
2018-12-29T03:05:53.538Z,-1.30
2018-12-29T03:08:23.313Z,-1.20
2018-12-29T03:10:53.202Z,-1.20
2018-12-29T03:13:24.152Z,-1.30
2018-12-29T03:15:53.988Z,-1.30
2018-12-29T03:18:23.756Z,-1.40
2018-12-29T03:20:53.557Z,-1.40
2018-12-29T03:23:23.378Z,-1.40
2018-12-29T03:25:53.202Z,-1.40
2018-12-29T03:28:23.308Z,-1.40
2018-12-29T03:30:58.625Z,-1.50
2018-12-29T03:33:28.409Z,-1.50
2018-12-29T03:35:58.245Z,-1.50
2018-12-29T03:38:28.368Z,-1.50
2018-12-29T03:40:58.274Z,-1.60
2018-12-29T03:43:28.078Z,-1.60
2018-12-29T03:45:57.900Z,-1.60
2018-12-29T03:48:27.694Z,-1.60
2018-12-29T03:50:57.606Z,-1.50
2018-12-29T03:53:27.843Z,-1.50
2018-12-29T03:55:57.612Z,-1.60
2018-12-29T03:58:27.470Z,-1.70
2018-12-29T04:00:57.633Z,-1.70
2018-12-29T04:03:27.393Z,-1.70
2018-12-29T04:05:57.661Z,-1.70
2018-12-29T04:08:27.540Z,-1.70
2018-12-29T04:10:57.473Z,-1.70
2018-12-29T04:13:27.261Z,-1.70
2018-12-29T04:15:58.312Z,-1.70
2018-12-29T04:18:28.373Z,-1.70
2018-12-29T04:20:58.215Z,-1.80
2018-12-29T04:23:28.405Z,-1.80
2018-12-29T04:25:58.244Z,-1.80
2018-12-29T04:28:29.218Z,-1.90
2018-12-29T04:30:59.519Z,-1.80
2018-12-29T04:33:29.295Z,-1.80
2018-12-29T04:35:59.101Z,-1.90
2018-12-29T04:38:29.241Z,-1.90
2018-12-29T04:40:59.696Z,-1.90
2018-12-29T04:43:29.476Z,-1.90
2018-12-29T04:46:05.223Z,-1.90
2018-12-29T04:48:30.979Z,-2.00
2018-12-29T04:51:00.784Z,-2.00
2018-12-29T04:53:30.541Z,-2.00
2018-12-29T04:56:00.417Z,-2.10
2018-12-29T04:58:30.173Z,-2.00
2018-12-29T05:01:00.040Z,-1.90
2018-12-29T05:03:30.133Z,-2.00
2018-12-29T05:06:00.112Z,-1.90
2018-12-29T05:08:29.969Z,-2.00
2018-12-29T05:11:00.115Z,-1.90
2018-12-29T05:13:29.885Z,-2.00
2018-12-29T05:15:59.668Z,-2.00
2018-12-29T05:18:29.461Z,-2.00
2018-12-29T05:20:59.260Z,-2.00
2018-12-29T05:23:29.034Z,-2.00
2018-12-29T05:25:58.872Z,-2.10
2018-12-29T05:28:28.673Z,-2.10
2018-12-29T05:30:58.517Z,-2.10
2018-12-29T05:33:28.641Z,-2.20
2018-12-29T05:35:58.480Z,-2.20
2018-12-29T05:38:28.260Z,-2.20
2018-12-29T05:40:58.044Z,-2.20
2018-12-29T05:43:27.825Z,-2.20
2018-12-29T05:45:57.584Z,-2.20
2018-12-29T05:48:27.360Z,-2.20
2018-12-29T05:50:57.209Z,-2.10
2018-12-29T05:53:26.987Z,-2.10
2018-12-29T05:55:56.753Z,-2.10
2018-12-29T05:58:26.613Z,-2.10
2018-12-29T06:00:57.030Z,-2.20
2018-12-29T06:03:26.809Z,-2.20
2018-12-29T06:05:56.892Z,-2.20
2018-12-29T06:08:27.130Z,-2.10
2018-12-29T06:10:56.921Z,-2.10
2018-12-29T06:13:26.832Z,-2.10
2018-12-29T06:15:56.852Z,-2.10
2018-12-29T06:18:26.632Z,-2.10
2018-12-29T06:20:56.837Z,-2.10
2018-12-29T06:23:28.817Z,-2.00
2018-12-29T06:25:58.697Z,-2.00
2018-12-29T06:28:28.552Z,-1.90
2018-12-29T06:30:58.702Z,-2.00
2018-12-29T06:33:28.458Z,-2.10
2018-12-29T06:35:58.260Z,-2.10
2018-12-29T06:38:28.092Z,-2.10
2018-12-29T06:40:58.046Z,-2.10
2018-12-29T06:43:27.876Z,-2.10
2018-12-29T06:45:57.653Z,-2.00
2018-12-29T06:48:27.449Z,-2.00
2018-12-29T06:50:57.307Z,-2.10
2018-12-29T06:53:27.090Z,-2.00
2018-12-29T06:55:56.957Z,-2.00
2018-12-29T06:58:26.741Z,-2.00
2018-12-29T07:00:56.615Z,-2.00
2018-12-29T07:03:26.468Z,-2.00
2018-12-29T07:05:56.673Z,-2.00
2018-12-29T07:08:26.461Z,-2.00
2018-12-29T07:10:56.252Z,-2.00
2018-12-29T07:13:26.025Z,-2.00
2018-12-29T07:15:55.896Z,-2.00
2018-12-29T07:18:26.046Z,-2.00
2018-12-29T07:20:55.848Z,-2.00
2018-12-29T07:23:25.689Z,-2.00
2018-12-29T07:25:55.539Z,-1.90
2018-12-29T07:28:25.357Z,-1.90
2018-12-29T07:30:55.166Z,-1.90
2018-12-29T07:33:25.405Z,-1.90
2018-12-29T07:35:55.580Z,-1.90
2018-12-29T07:38:25.350Z,-1.70
2018-12-29T07:40:55.203Z,-1.80
2018-12-29T07:43:25.597Z,-1.80
2018-12-29T07:45:55.393Z,-1.90
2018-12-29T07:48:25.189Z,-1.80
2018-12-29T07:50:55.163Z,-1.80
2018-12-29T07:53:25.375Z,-1.80
2018-12-29T07:55:55.488Z,-1.70
2018-12-29T07:58:26.076Z,-1.70
2018-12-29T08:00:55.856Z,-1.70
2018-12-29T08:03:25.739Z,-1.60
2018-12-29T08:05:55.673Z,-1.60
2018-12-29T08:08:37.533Z,-1.50
2018-12-29T08:11:07.405Z,-1.40
2018-12-29T08:13:37.245Z,-1.40
2018-12-29T08:16:07.109Z,-1.40
2018-12-29T08:18:37.232Z,-1.40
2018-12-29T08:21:07.220Z,-1.40
2018-12-29T08:23:37.069Z,-1.50
2018-12-29T08:26:07.016Z,-1.40
2018-12-29T08:28:36.887Z,-1.30
2018-12-29T08:31:06.816Z,-1.30
2018-12-29T08:33:36.669Z,-1.30
2018-12-29T08:36:06.455Z,-1.30
2018-12-29T08:38:36.261Z,-1.20
2018-12-29T08:41:06.093Z,-1.30
2018-12-29T08:43:35.981Z,-1.10
2018-12-29T08:46:05.794Z,-1.00
2018-12-29T08:48:36.041Z,-1.00
2018-12-29T08:51:05.866Z,-1.00
2018-12-29T08:53:35.781Z,-1.00
2018-12-29T08:56:05.661Z,-1.00
2018-12-29T08:58:35.559Z,-1.10
2018-12-29T09:01:05.528Z,-1.00
2018-12-29T09:03:35.361Z,-0.90
2018-12-29T09:06:05.217Z,-0.90
2018-12-29T09:08:35.070Z,-0.80
2018-12-29T09:11:04.881Z,-0.80
2018-12-29T09:13:34.628Z,-0.80
2018-12-29T09:16:04.423Z,-0.70
2018-12-29T09:18:34.536Z,-0.60
2018-12-29T09:21:04.764Z,-0.50
2018-12-29T09:23:34.606Z,-0.60
2018-12-29T09:26:04.772Z,-0.50
2018-12-29T09:28:34.770Z,-0.70
2018-12-29T09:31:04.870Z,-0.60
2018-12-29T09:33:34.639Z,-0.60
2018-12-29T09:36:04.585Z,-0.50
2018-12-29T09:38:34.941Z,-0.40
2018-12-29T09:41:04.880Z,-0.20
2018-12-29T09:43:34.624Z,-0.20
2018-12-29T09:46:04.534Z,-0.10
2018-12-29T09:48:34.369Z,-0.20
2018-12-29T09:51:16.119Z,-0.20
2018-12-29T09:53:45.957Z,-0.20
2018-12-29T09:56:15.777Z,-0.30
2018-12-29T09:58:45.611Z,-0.30
2018-12-29T10:01:24.609Z,-0.30
2018-12-29T10:03:54.701Z,-0.20
2018-12-29T10:06:24.900Z,-0.30
2018-12-29T10:08:54.801Z,-0.20
2018-12-29T10:11:26.049Z,-0.10
2018-12-29T10:13:56.352Z,0.00
2018-12-29T10:16:26.197Z,0.10
2018-12-29T10:18:55.985Z,0.00
2018-12-29T10:21:30.190Z,0.00
2018-12-29T10:24:00.301Z,0.10
2018-12-29T10:26:30.195Z,0.00
2018-12-29T10:29:01.661Z,0.00
2018-12-29T10:31:34.627Z,-0.10
2018-12-29T10:34:04.818Z,-0.10
2018-12-29T10:36:35.081Z,-0.10
2018-12-29T10:39:07.512Z,-0.10
2018-12-29T10:41:37.966Z,-0.20
2018-12-29T10:44:09.433Z,-0.20
2018-12-29T10:46:41.464Z,-0.20
2018-12-29T10:49:14.633Z,-0.10
2018-12-29T10:51:56.726Z,-0.10
2018-12-29T10:54:26.861Z,-0.10
2018-12-29T10:57:00.031Z,0.10
2018-12-29T10:59:30.385Z,0.20
2018-12-29T11:02:00.285Z,0.20
2018-12-29T11:04:30.498Z,0.10
2018-12-29T11:07:00.804Z,0.10
2018-12-29T11:09:30.613Z,0.10
2018-12-29T11:12:00.957Z,0.00
2018-12-29T11:14:35.355Z,0.00
2018-12-29T11:17:05.438Z,0.10
2018-12-29T11:19:35.419Z,0.00
2018-12-29T11:22:05.300Z,0.00
2018-12-29T11:24:38.234Z,0.00
2018-12-29T11:27:08.747Z,0.00
2018-12-29T11:29:38.700Z,0.20
2018-12-29T11:32:08.557Z,0.30
2018-12-29T11:34:38.979Z,0.20
2018-12-29T11:37:08.737Z,0.20
2018-12-29T11:39:43.730Z,0.30
2018-12-29T11:42:14.160Z,0.20
2018-12-29T11:44:46.432Z,0.20
2018-12-29T11:47:16.872Z,0.10
2018-12-29T11:49:50.300Z,0.20
2018-12-29T11:52:20.527Z,0.30
2018-12-29T11:54:50.568Z,0.30
2018-12-29T11:57:21.101Z,0.30
2018-12-29T11:59:51.244Z,0.20
2018-12-29T12:02:24.606Z,0.20
2018-12-29T12:04:53.678Z,0.20
2018-12-29T12:07:23.672Z,0.30
2018-12-29T12:09:55.952Z,0.30
2018-12-29T12:12:26.550Z,0.50
2018-12-29T12:14:58.404Z,0.50
2018-12-29T12:17:29.426Z,0.50
2018-12-29T12:19:59.548Z,0.50
2018-12-29T12:22:29.729Z,0.60
2018-12-29T12:25:00.776Z,0.70
2018-12-29T12:27:30.601Z,0.80
2018-12-29T12:30:01.381Z,0.70
2018-12-29T12:32:34.361Z,0.70
2018-12-29T12:35:05.344Z,0.70
2018-12-29T12:37:38.670Z,0.80
2018-12-29T12:40:09.560Z,0.90
2018-12-29T12:42:40.353Z,0.80
2018-12-29T12:45:11.041Z,0.70
2018-12-29T12:47:41.878Z,0.80
2018-12-29T12:50:12.349Z,0.80
2018-12-29T12:52:43.205Z,0.80
2018-12-29T12:55:16.096Z,0.80
2018-12-29T12:57:46.506Z,1.00
2018-12-29T13:00:18.426Z,1.00
2018-12-29T13:02:48.928Z,1.00
2018-12-29T13:05:19.213Z,1.00
2018-12-29T13:07:50.124Z,0.90
2018-12-29T13:10:20.568Z,0.90
2018-12-29T13:12:53.668Z,0.90
2018-12-29T13:15:24.716Z,0.90
2018-12-29T13:18:01.805Z,1.00
2018-12-29T13:20:33.652Z,1.00
2018-12-29T13:23:03.589Z,1.10
2018-12-29T13:25:33.769Z,1.20
2018-12-29T13:28:03.745Z,1.10
2018-12-29T13:30:33.977Z,1.10
2018-12-29T13:33:04.310Z,1.20
2018-12-29T13:35:34.182Z,1.20
2018-12-29T13:38:04.049Z,1.20
2018-12-29T13:40:34.029Z,1.20
2018-12-29T13:43:04.359Z,1.10
2018-12-29T13:45:34.864Z,1.20
2018-12-29T13:48:04.857Z,1.20
2018-12-29T13:50:34.764Z,1.20
2018-12-29T13:53:05.353Z,1.30
2018-12-29T13:55:36.668Z,1.30
2018-12-29T13:58:06.788Z,1.30
2018-12-29T14:00:37.065Z,1.30
2018-12-29T14:03:06.995Z,1.30
2018-12-29T14:05:36.930Z,1.30
2018-12-29T14:08:07.107Z,1.30
2018-12-29T14:10:37.307Z,1.30
2018-12-29T14:13:07.506Z,1.40
2018-12-29T14:15:37.618Z,1.40
2018-12-29T14:18:07.596Z,1.30
2018-12-29T14:20:37.598Z,1.30
2018-12-29T14:23:07.773Z,1.40
2018-12-29T14:25:37.929Z,1.40
2018-12-29T14:28:08.249Z,1.40
2018-12-29T14:30:38.424Z,1.40
2018-12-29T14:33:10.678Z,1.40
2018-12-29T14:35:40.620Z,1.40
2018-12-29T14:38:10.968Z,1.40
2018-12-29T14:40:40.873Z,1.40
2018-12-29T14:43:10.936Z,1.40
2018-12-29T14:45:41.497Z,1.40
2018-12-29T14:48:11.817Z,1.40
2018-12-29T14:50:41.753Z,1.40
2018-12-29T14:53:11.683Z,1.50
2018-12-29T14:55:41.786Z,1.50
2018-12-29T14:58:11.672Z,1.50
2018-12-29T15:00:42.016Z,1.60
2018-12-29T15:03:12.383Z,1.60
2018-12-29T15:05:42.361Z,1.50
2018-12-29T15:08:12.405Z,1.50
2018-12-29T15:10:42.638Z,1.40
2018-12-29T15:13:14.154Z,1.40
2018-12-29T15:15:44.078Z,1.50
2018-12-29T15:18:14.260Z,1.50
2018-12-29T15:20:44.457Z,1.50
2018-12-29T15:23:15.142Z,1.40
2018-12-29T15:25:44.993Z,1.40
2018-12-29T15:28:14.921Z,1.50
2018-12-29T15:30:45.097Z,1.50
2018-12-29T15:33:15.029Z,1.40
2018-12-29T15:35:45.462Z,1.40
2018-12-29T15:38:15.419Z,1.40
2018-12-29T15:40:45.365Z,1.40
2018-12-29T15:43:15.613Z,1.30
2018-12-29T15:45:46.080Z,1.20
2018-12-29T15:48:16.170Z,1.20
2018-12-29T15:50:46.129Z,1.30
2018-12-29T15:53:16.190Z,1.30
2018-12-29T15:55:46.097Z,1.30
2018-12-29T15:58:16.509Z,1.30
2018-12-29T16:00:46.580Z,1.40
2018-12-29T16:03:16.881Z,1.50
2018-12-29T16:05:46.821Z,1.50
2018-12-29T16:08:17.072Z,1.50
2018-12-29T16:10:47.206Z,1.50
2018-12-29T16:13:17.241Z,1.50
2018-12-29T16:15:47.178Z,1.40
2018-12-29T16:18:17.049Z,1.40
2018-12-29T16:20:53.577Z,1.30
2018-12-29T16:23:18.976Z,1.30
2018-12-29T16:25:49.408Z,1.40
2018-12-29T16:28:19.231Z,1.30
2018-12-29T16:30:49.237Z,1.30
2018-12-29T16:33:19.393Z,1.20
2018-12-29T16:35:49.201Z,1.20
2018-12-29T16:38:19.498Z,1.20
2018-12-29T16:40:57.854Z,1.30
2018-12-29T16:43:23.221Z,1.40
2018-12-29T16:45:53.326Z,1.40
2018-12-29T16:48:23.749Z,1.30
2018-12-29T16:50:54.625Z,1.20
2018-12-29T16:53:29.172Z,1.20
2018-12-29T16:55:56.299Z,1.20
2018-12-29T16:58:26.425Z,1.40
2018-12-29T17:00:56.664Z,1.30
2018-12-29T17:03:26.991Z,1.30
2018-12-29T17:05:57.917Z,1.30
2018-12-29T17:08:28.748Z,1.20
2018-12-29T17:10:59.973Z,1.10
2018-12-29T17:13:30.091Z,1.10
2018-12-29T17:16:00.208Z,1.10
2018-12-29T17:18:30.141Z,1.00
2018-12-29T17:21:00.462Z,0.90
2018-12-29T17:23:31.453Z,0.70
2018-12-29T17:26:02.497Z,0.70
2018-12-29T17:28:32.741Z,0.60
2018-12-29T17:31:03.439Z,0.60
2018-12-29T17:33:33.456Z,0.70
2018-12-29T17:36:03.418Z,0.70
2018-12-29T17:38:33.472Z,0.70
2018-12-29T17:41:04.103Z,0.70
2018-12-29T17:43:34.457Z,0.70
2018-12-29T17:46:04.458Z,0.60
2018-12-29T17:48:34.497Z,0.40
2018-12-29T17:51:04.569Z,0.30
2018-12-29T17:53:34.857Z,0.20
2018-12-29T17:56:05.005Z,0.10
2018-12-29T17:58:35.146Z,0.00
2018-12-29T18:01:05.578Z,0.00
2018-12-29T18:03:35.494Z,0.00
2018-12-29T18:06:05.357Z,0.00
2018-12-29T18:08:35.297Z,0.00
2018-12-29T18:11:05.490Z,0.00
2018-12-29T18:13:35.395Z,0.20
2018-12-29T18:16:05.687Z,0.10
2018-12-29T18:18:35.721Z,0.00
2018-12-29T18:21:05.785Z,0.00
2018-12-29T18:23:35.996Z,-0.10
2018-12-29T18:26:05.984Z,-0.20
2018-12-29T18:28:36.070Z,-0.10
2018-12-29T18:31:07.432Z,0.00
2018-12-29T18:33:37.817Z,0.10
2018-12-29T18:36:07.861Z,-0.10
2018-12-29T18:38:38.144Z,0.00
2018-12-29T18:41:08.064Z,0.10
2018-12-29T18:43:37.937Z,0.10
2018-12-29T18:46:08.653Z,0.10
2018-12-29T18:48:38.888Z,0.20
2018-12-29T18:51:08.814Z,0.30
2018-12-29T18:53:38.874Z,0.30
2018-12-29T18:56:08.849Z,0.30
2018-12-29T18:58:38.832Z,0.40
2018-12-29T19:01:09.384Z,0.30
2018-12-29T19:03:40.413Z,0.30
2018-12-29T19:06:10.396Z,0.30
2018-12-29T19:08:40.737Z,0.30
2018-12-29T19:11:10.654Z,0.20
2018-12-29T19:13:40.504Z,0.20
2018-12-29T19:16:10.357Z,0.20
2018-12-29T19:18:41.593Z,0.30
2018-12-29T19:21:12.822Z,0.20
2018-12-29T19:23:43.277Z,0.10
2018-12-29T19:26:13.819Z,0.10
2018-12-29T19:28:43.975Z,0.10
2018-12-29T19:31:14.217Z,0.10
2018-12-29T19:33:43.976Z,0.10
2018-12-29T19:36:13.914Z,0.20
2018-12-29T19:38:44.837Z,0.20
2018-12-29T19:41:15.187Z,0.20
2018-12-29T19:43:46.483Z,0.20
2018-12-29T19:46:16.627Z,0.20
2018-12-29T19:48:48.944Z,0.10
2018-12-29T19:51:18.844Z,0.20
2018-12-29T19:53:49.043Z,0.10
2018-12-29T19:56:19.036Z,0.10
2018-12-29T19:58:48.829Z,0.10
2018-12-29T20:01:18.588Z,0.10
2018-12-29T20:03:48.392Z,0.10
2018-12-29T20:06:18.178Z,0.10
2018-12-29T20:08:48.183Z,0.10
2018-12-29T20:11:18.024Z,0.00
2018-12-29T20:13:48.249Z,0.00
2018-12-29T20:16:18.161Z,0.00
2018-12-29T20:18:48.038Z,0.10
2018-12-29T20:21:17.904Z,0.10
2018-12-29T20:23:47.777Z,0.10
2018-12-29T20:26:17.713Z,0.10
2018-12-29T20:28:47.753Z,0.20
2018-12-29T20:31:18.096Z,0.20
2018-12-29T20:33:48.142Z,0.20
2018-12-29T20:36:18.041Z,0.20
2018-12-29T20:38:48.213Z,0.30
2018-12-29T20:41:18.405Z,0.20
2018-12-29T20:43:48.613Z,0.20
2018-12-29T20:46:18.494Z,0.30
2018-12-29T20:48:48.454Z,0.20
2018-12-29T20:51:18.300Z,0.20
2018-12-29T20:53:48.458Z,0.30
2018-12-29T20:56:18.556Z,0.30
2018-12-29T20:58:48.421Z,0.30
2018-12-29T21:01:18.233Z,0.40
2018-12-29T21:03:49.169Z,0.40
2018-12-29T21:06:20.535Z,0.40
2018-12-29T21:08:50.348Z,0.40
2018-12-29T21:11:20.478Z,0.30
2018-12-29T21:13:50.277Z,0.40
2018-12-29T21:16:20.661Z,0.40
2018-12-29T21:18:51.014Z,0.40
2018-12-29T21:21:21.126Z,0.40
2018-12-29T21:23:51.149Z,0.40
2018-12-29T21:26:22.609Z,0.40
2018-12-29T21:28:52.512Z,0.50
2018-12-29T21:31:22.778Z,0.50
2018-12-29T21:33:52.874Z,0.60
2018-12-29T21:36:23.773Z,0.50
2018-12-29T21:38:53.581Z,0.60
2018-12-29T21:41:23.432Z,0.50
2018-12-29T21:43:53.579Z,0.50
2018-12-29T21:46:25.538Z,0.50
2018-12-29T21:48:55.384Z,0.40
2018-12-29T21:51:25.252Z,0.40
2018-12-29T21:53:55.196Z,0.30
2018-12-29T21:56:26.096Z,0.40
2018-12-29T21:58:56.083Z,0.50
2018-12-29T22:01:25.910Z,0.60
2018-12-29T22:03:55.769Z,0.60
2018-12-29T22:06:25.856Z,0.60
2018-12-29T22:08:55.701Z,0.60
2018-12-29T22:11:25.533Z,0.70
2018-12-29T22:13:55.626Z,0.70
2018-12-29T22:16:25.472Z,0.80
2018-12-29T22:18:55.709Z,0.70
2018-12-29T22:21:25.584Z,0.70
2018-12-29T22:23:55.377Z,0.70
2018-12-29T22:26:25.188Z,0.70
2018-12-29T22:28:55.204Z,0.80
2018-12-29T22:31:25.012Z,0.80
2018-12-29T22:33:54.845Z,0.70
2018-12-29T22:36:24.756Z,0.80
2018-12-29T22:38:55.000Z,0.80
2018-12-29T22:41:24.750Z,0.70
2018-12-29T22:43:54.764Z,0.70
2018-12-29T22:46:24.505Z,0.70
2018-12-29T22:48:54.459Z,0.70
2018-12-29T22:51:24.427Z,0.60
2018-12-29T22:53:54.232Z,0.60
2018-12-29T22:56:24.082Z,0.60
2018-12-29T22:58:54.239Z,0.60
2018-12-29T23:01:24.321Z,0.60
2018-12-29T23:03:54.510Z,0.60
2018-12-29T23:06:24.586Z,0.60
2018-12-29T23:08:54.485Z,0.60
2018-12-29T23:11:24.447Z,0.60
2018-12-29T23:13:55.856Z,0.60
2018-12-29T23:16:25.828Z,0.60
2018-12-29T23:18:56.214Z,0.50
2018-12-29T23:21:26.144Z,0.50
2018-12-29T23:23:55.916Z,0.50
2018-12-29T23:26:25.866Z,0.50
2018-12-29T23:28:55.771Z,0.50
2018-12-29T23:31:25.869Z,0.50
2018-12-29T23:33:55.693Z,0.50
2018-12-29T23:36:25.897Z,0.50
2018-12-29T23:38:55.666Z,0.50
2018-12-29T23:41:25.821Z,0.50
2018-12-29T23:43:55.711Z,0.50
2018-12-29T23:46:25.577Z,0.50
2018-12-29T23:48:55.421Z,0.50
2018-12-29T23:51:25.436Z,0.50
2018-12-29T23:53:55.177Z,0.50
2018-12-29T23:56:25.308Z,0.50
2018-12-29T23:58:55.208Z,0.50
